SJX838 RCTP-RJGG
Flight info
| Callsign | SJX838 |
|---|---|
| Flight time | 2h 0m |
| Altitude | 39000 |
| Route | MOLKA1A MOLKA M750 IMPAL Y755 CARDS |
| Aircraft | A359/H-SDE2E3GHIJ3J4J5LM1ORWXY/LB1D1 |
Departure
| Time | 2026-05-04 05:41 |
|---|---|
| Airport | Taiwan Taoyuan International Airport (RCTP) |
Arrival
| Time | 2026-05-04 07:41 |
|---|---|
| Airport | Chubu Centrair International Airport (RJGG) |
| Time | Latitude | Longitude | Altitude | Speed | Heading |
|---|---|---|---|---|---|
| 2026-05-04 05:28 | 25.07227 | 121.23317 | 107 ft | 0 kts | 319° |
| 2026-05-04 05:34 | 25.07217 | 121.23326 | 105 ft | 3 kts | 319° |
| 2026-05-04 05:34 | 25.07207 | 121.23336 | 105 ft | 3 kts | 319° |
| 2026-05-04 05:34 | 25.07192 | 121.23350 | 104 ft | 2 kts | 319° |
| 2026-05-04 05:34 | 25.07180 | 121.23362 | 105 ft | 3 kts | 309° |
| 2026-05-04 05:35 | 25.07170 | 121.23377 | 103 ft | 3 kts | 287° |
| 2026-05-04 05:35 | 25.07167 | 121.23400 | 104 ft | 3 kts | 249° |
| 2026-05-04 05:35 | 25.07175 | 121.23418 | 104 ft | 3 kts | 231° |
| 2026-05-04 05:35 | 25.07184 | 121.23429 | 105 ft | 0 kts | 227° |
| 2026-05-04 05:36 | 25.07183 | 121.23428 | 105 ft | 1 kts | 227° |
| 2026-05-04 05:36 | 25.07171 | 121.23413 | 103 ft | 6 kts | 227° |
| 2026-05-04 05:37 | 25.07147 | 121.23384 | 104 ft | 10 kts | 227° |
| 2026-05-04 05:37 | 25.07086 | 121.23310 | 106 ft | 16 kts | 227° |
| 2026-05-04 05:37 | 25.06997 | 121.23197 | 106 ft | 22 kts | 230° |
| 2026-05-04 05:38 | 25.06815 | 121.22964 | 106 ft | 18 kts | 229° |
| 2026-05-04 05:38 | 25.06724 | 121.22847 | 105 ft | 22 kts | 230° |
| 2026-05-04 05:38 | 25.06615 | 121.22709 | 105 ft | 22 kts | 229° |
| 2026-05-04 05:38 | 25.06530 | 121.22601 | 106 ft | 13 kts | 229° |
| 2026-05-04 05:39 | 25.06463 | 121.22516 | 104 ft | 16 kts | 229° |
| 2026-05-04 05:39 | 25.06300 | 121.22309 | 106 ft | 20 kts | 229° |
| 2026-05-04 05:39 | 25.06202 | 121.22258 | 105 ft | 17 kts | 157° |
| 2026-05-04 05:40 | 25.06136 | 121.22424 | 103 ft | 10 kts | 47° |
| 2026-05-04 05:40 | 25.06252 | 121.22568 | 105 ft | 54 kts | 49° |
| 2026-05-04 05:40 | 25.06638 | 121.23057 | 102 ft | 113 kts | 49° |
| 2026-05-04 05:41 | 25.07267 | 121.23858 | 151 ft | 159 kts | 48° |
| 2026-05-04 05:41 | 25.07976 | 121.24778 | 842 ft | 152 kts | 49° |
| 2026-05-04 05:41 | 25.08682 | 121.25688 | 1408 ft | 164 kts | 51° |
| 2026-05-04 05:41 | 25.09478 | 121.26730 | 1649 ft | 190 kts | 53° |
| 2026-05-04 05:42 | 25.10382 | 121.27922 | 1913 ft | 216 kts | 53° |
| 2026-05-04 05:42 | 25.11392 | 121.29254 | 2363 ft | 233 kts | 52° |
| 2026-05-04 05:42 | 25.12457 | 121.30571 | 3182 ft | 235 kts | 49° |
| 2026-05-04 05:42 | 25.13633 | 121.31893 | 3919 ft | 242 kts | 48° |
| 2026-05-04 05:43 | 25.14821 | 121.33224 | 4584 ft | 251 kts | 49° |
| 2026-05-04 05:43 | 25.16065 | 121.34632 | 5237 ft | 261 kts | 49° |
| 2026-05-04 05:43 | 25.17360 | 121.36117 | 5709 ft | 277 kts | 47° |
| 2026-05-04 05:45 | 25.27516 | 121.48124 | 10308 ft | 331 kts | 58° |
| 2026-05-04 05:45 | 25.28393 | 121.50551 | 10601 ft | 351 kts | 77° |
| 2026-05-04 05:47 | 25.32376 | 121.71342 | 13996 ft | 419 kts | 78° |
| 2026-05-04 05:47 | 25.32992 | 121.74512 | 14496 ft | 424 kts | 78° |
| 2026-05-04 05:47 | 25.33614 | 121.77709 | 15042 ft | 427 kts | 78° |
| 2026-05-04 05:48 | 25.34241 | 121.80935 | 15566 ft | 431 kts | 78° |
| 2026-05-04 05:48 | 25.34872 | 121.84188 | 16074 ft | 434 kts | 78° |
| 2026-05-04 05:48 | 25.35508 | 121.87467 | 16583 ft | 438 kts | 78° |
| 2026-05-04 05:48 | 25.36147 | 121.90770 | 17106 ft | 441 kts | 78° |
| 2026-05-04 05:49 | 25.36792 | 121.94102 | 17605 ft | 445 kts | 78° |
| 2026-05-04 05:49 | 25.37441 | 121.97463 | 18117 ft | 449 kts | 78° |
| 2026-05-04 05:49 | 25.38095 | 122.00852 | 18582 ft | 452 kts | 78° |
| 2026-05-04 05:49 | 25.38752 | 122.04267 | 19018 ft | 456 kts | 78° |
| 2026-05-04 05:51 | 25.44481 | 122.28447 | 22217 ft | 476 kts | 68° |
| 2026-05-04 05:51 | 25.45647 | 122.31886 | 22640 ft | 480 kts | 68° |
| 2026-05-04 05:52 | 25.46819 | 122.35355 | 23096 ft | 483 kts | 68° |
| 2026-05-04 05:52 | 25.47994 | 122.38844 | 23546 ft | 486 kts | 68° |
| 2026-05-04 05:52 | 25.49176 | 122.42362 | 23933 ft | 489 kts | 68° |
| 2026-05-04 05:52 | 25.50364 | 122.45905 | 24307 ft | 492 kts | 69° |
| 2026-05-04 05:53 | 25.51559 | 122.49472 | 24699 ft | 495 kts | 69° |
| 2026-05-04 05:54 | 25.60092 | 122.75063 | 27500 ft | 517 kts | 69° |
| 2026-05-04 05:55 | 25.61339 | 122.78817 | 27882 ft | 521 kts | 69° |
| 2026-05-04 05:55 | 25.62593 | 122.82595 | 28270 ft | 524 kts | 69° |
| 2026-05-04 05:55 | 25.63852 | 122.86394 | 28657 ft | 527 kts | 69° |
| 2026-05-04 05:55 | 25.65124 | 122.90214 | 29027 ft | 530 kts | 69° |
| 2026-05-04 05:56 | 25.66422 | 122.94050 | 29385 ft | 533 kts | 69° |
| 2026-05-04 05:56 | 25.67729 | 122.97911 | 29760 ft | 536 kts | 69° |
| 2026-05-04 05:56 | 25.69041 | 123.01795 | 30115 ft | 539 kts | 69° |
| 2026-05-04 05:56 | 25.70356 | 123.05701 | 30419 ft | 542 kts | 69° |
| 2026-05-04 05:57 | 25.71677 | 123.09628 | 30713 ft | 545 kts | 69° |
| 2026-05-04 05:57 | 25.73004 | 123.13577 | 31011 ft | 548 kts | 69° |
| 2026-05-04 05:57 | 25.74335 | 123.17545 | 31303 ft | 550 kts | 69° |
| 2026-05-04 05:57 | 25.75671 | 123.21534 | 31595 ft | 553 kts | 69° |
| 2026-05-04 05:58 | 25.77014 | 123.25545 | 31871 ft | 556 kts | 69° |
| 2026-05-04 05:58 | 25.78360 | 123.29571 | 32143 ft | 558 kts | 69° |
| 2026-05-04 05:58 | 25.79712 | 123.33619 | 32416 ft | 560 kts | 69° |
| 2026-05-04 05:58 | 25.81068 | 123.37683 | 32678 ft | 563 kts | 69° |
| 2026-05-04 05:59 | 25.82428 | 123.41763 | 32926 ft | 565 kts | 69° |
| 2026-05-04 05:59 | 25.83792 | 123.45862 | 33171 ft | 567 kts | 70° |
| 2026-05-04 05:59 | 25.85148 | 123.49918 | 33406 ft | 569 kts | 69° |
| 2026-05-04 05:59 | 25.86808 | 123.53910 | 33613 ft | 570 kts | 58° |
| 2026-05-04 06:00 | 25.89078 | 123.57505 | 33832 ft | 568 kts | 46° |
| 2026-05-04 06:00 | 25.91917 | 123.60518 | 34056 ft | 562 kts | 33° |
| 2026-05-04 06:00 | 25.95177 | 123.62836 | 34347 ft | 552 kts | 21° |
| 2026-05-04 06:00 | 25.98613 | 123.64702 | 34655 ft | 548 kts | 19° |
| 2026-05-04 06:01 | 26.02061 | 123.66486 | 34967 ft | 547 kts | 18° |
| 2026-05-04 06:01 | 26.05508 | 123.68269 | 35284 ft | 545 kts | 18° |
| 2026-05-04 06:03 | 26.29425 | 123.80780 | 37219 ft | 540 kts | 18° |
| 2026-05-04 06:03 | 26.32826 | 123.82567 | 37465 ft | 540 kts | 18° |
| 2026-05-04 06:05 | 26.56513 | 123.95051 | 39037 ft | 536 kts | 17° |
| 2026-05-04 06:05 | 26.63245 | 123.98729 | 39122 ft | 544 kts | 23° |
| 2026-05-04 06:05 | 26.66374 | 124.01179 | 39135 ft | 555 kts | 35° |
| 2026-05-04 06:06 | 26.69122 | 124.04245 | 39135 ft | 561 kts | 43° |
| 2026-05-04 06:06 | 26.74220 | 124.10907 | 39143 ft | 565 kts | 46° |
| 2026-05-04 06:07 | 26.79202 | 124.17732 | 39136 ft | 566 kts | 46° |
| 2026-05-04 06:07 | 26.84204 | 124.24545 | 39133 ft | 566 kts | 45° |
| 2026-05-04 06:08 | 26.89234 | 124.31331 | 39142 ft | 566 kts | 45° |
| 2026-05-04 06:08 | 26.94276 | 124.38115 | 39141 ft | 567 kts | 45° |
| 2026-05-04 06:09 | 26.99321 | 124.44917 | 39139 ft | 567 kts | 45° |
| 2026-05-04 06:11 | 27.19524 | 124.72238 | 39143 ft | 570 kts | 45° |
| 2026-05-04 06:13 | 27.39703 | 124.99708 | 39144 ft | 571 kts | 46° |
| 2026-05-04 06:14 | 27.57540 | 125.23795 | 39146 ft | 573 kts | 45° |
| 2026-05-04 06:15 | 27.62637 | 125.30702 | 39144 ft | 573 kts | 45° |
| 2026-05-04 06:15 | 27.67676 | 125.37544 | 39145 ft | 574 kts | 45° |
| 2026-05-04 06:16 | 27.72783 | 125.44487 | 39149 ft | 575 kts | 45° |
| 2026-05-04 06:16 | 27.77884 | 125.51434 | 39147 ft | 575 kts | 45° |
| 2026-05-04 06:17 | 27.82992 | 125.58402 | 39147 ft | 576 kts | 45° |
| 2026-05-04 06:17 | 27.88096 | 125.65375 | 39147 ft | 576 kts | 45° |
| 2026-05-04 06:18 | 27.93203 | 125.72364 | 39150 ft | 577 kts | 45° |
| 2026-05-04 06:20 | 28.13609 | 126.00406 | 39151 ft | 579 kts | 45° |
| 2026-05-04 06:21 | 28.26381 | 126.18051 | 39147 ft | 580 kts | 45° |
| 2026-05-04 06:22 | 28.31492 | 126.25132 | 39143 ft | 580 kts | 45° |
| 2026-05-04 06:25 | 28.66371 | 126.73781 | 39143 ft | 582 kts | 45° |
| 2026-05-04 06:26 | 28.71474 | 126.80945 | 39144 ft | 582 kts | 45° |
| 2026-05-04 06:26 | 28.76570 | 126.88113 | 39140 ft | 582 kts | 45° |
| 2026-05-04 06:27 | 28.89303 | 127.06076 | 39139 ft | 583 kts | 46° |
| 2026-05-04 06:28 | 28.94395 | 127.13281 | 39126 ft | 583 kts | 46° |
| 2026-05-04 06:28 | 28.99488 | 127.20499 | 39130 ft | 584 kts | 46° |
| 2026-05-04 06:29 | 29.04582 | 127.27733 | 39131 ft | 584 kts | 46° |
| 2026-05-04 06:29 | 29.09672 | 127.34973 | 39130 ft | 584 kts | 46° |
| 2026-05-04 06:30 | 29.14761 | 127.42225 | 39132 ft | 585 kts | 46° |
| 2026-05-04 06:30 | 29.19849 | 127.49488 | 39130 ft | 585 kts | 46° |
| 2026-05-04 06:31 | 29.24935 | 127.56761 | 39129 ft | 585 kts | 46° |
| 2026-05-04 06:31 | 29.30015 | 127.64038 | 39129 ft | 586 kts | 46° |
| 2026-05-04 06:33 | 29.50308 | 127.93235 | 39125 ft | 587 kts | 46° |
| 2026-05-04 06:34 | 29.55381 | 128.00574 | 39119 ft | 587 kts | 46° |
| 2026-05-04 06:34 | 29.60459 | 128.07918 | 39124 ft | 587 kts | 46° |
| 2026-05-04 06:36 | 29.80777 | 128.37429 | 39114 ft | 589 kts | 47° |
| 2026-05-04 06:37 | 29.85854 | 128.44840 | 39113 ft | 589 kts | 47° |
| 2026-05-04 06:37 | 29.90927 | 128.52257 | 39117 ft | 589 kts | 47° |
| 2026-05-04 06:38 | 29.95999 | 128.59686 | 39111 ft | 590 kts | 47° |
| 2026-05-04 06:40 | 30.16183 | 128.89390 | 39103 ft | 591 kts | 47° |
| 2026-05-04 06:40 | 30.21247 | 128.96876 | 39105 ft | 591 kts | 47° |
| 2026-05-04 06:41 | 30.26308 | 129.04370 | 39099 ft | 591 kts | 47° |
| 2026-05-04 06:41 | 30.31369 | 129.11881 | 39100 ft | 592 kts | 47° |
| 2026-05-04 06:42 | 30.36423 | 129.19397 | 39096 ft | 592 kts | 47° |
| 2026-05-04 06:44 | 30.56631 | 129.49590 | 39096 ft | 593 kts | 47° |
| 2026-05-04 06:44 | 30.61676 | 129.57164 | 39094 ft | 593 kts | 47° |
| 2026-05-04 06:45 | 30.66717 | 129.64745 | 39091 ft | 593 kts | 47° |
| 2026-05-04 06:45 | 30.71754 | 129.72336 | 39090 ft | 594 kts | 47° |
| 2026-05-04 06:46 | 30.76794 | 129.79945 | 39089 ft | 593 kts | 47° |
| 2026-05-04 06:46 | 30.81820 | 129.87550 | 39083 ft | 593 kts | 47° |
| 2026-05-04 06:48 | 30.99676 | 130.20172 | 39078 ft | 598 kts | 55° |
| 2026-05-04 06:50 | 31.17106 | 130.53246 | 39076 ft | 598 kts | 55° |
| 2026-05-04 06:51 | 31.21452 | 130.61536 | 39068 ft | 599 kts | 55° |
| 2026-05-04 06:51 | 31.25796 | 130.69838 | 39062 ft | 599 kts | 56° |
| 2026-05-04 06:52 | 31.30138 | 130.78156 | 39057 ft | 599 kts | 56° |
| 2026-05-04 06:52 | 31.34474 | 130.86479 | 39052 ft | 599 kts | 56° |
| 2026-05-04 06:53 | 31.38798 | 130.94799 | 39054 ft | 598 kts | 56° |
| 2026-05-04 06:53 | 31.43117 | 131.03126 | 39054 ft | 599 kts | 56° |
| 2026-05-04 06:54 | 31.47436 | 131.11471 | 39047 ft | 599 kts | 56° |
| 2026-05-04 06:54 | 31.51751 | 131.19825 | 39043 ft | 599 kts | 56° |
| 2026-05-04 06:55 | 31.56066 | 131.28196 | 39031 ft | 600 kts | 56° |
| 2026-05-04 06:55 | 31.60376 | 131.36586 | 39015 ft | 601 kts | 56° |
| 2026-05-04 06:57 | 31.77577 | 131.70257 | 38999 ft | 601 kts | 56° |
| 2026-05-04 06:58 | 31.81868 | 131.78703 | 39011 ft | 602 kts | 56° |
| 2026-05-04 06:58 | 31.86156 | 131.87161 | 39020 ft | 602 kts | 56° |
| 2026-05-04 06:59 | 31.90434 | 131.95621 | 39023 ft | 602 kts | 56° |
| 2026-05-04 06:59 | 31.94687 | 132.04050 | 39006 ft | 603 kts | 56° |
| 2026-05-04 07:01 | 32.11748 | 132.38053 | 39015 ft | 602 kts | 56° |
| 2026-05-04 07:02 | 32.15817 | 132.46695 | 39001 ft | 604 kts | 61° |
| 2026-05-04 07:02 | 32.19489 | 132.55615 | 38992 ft | 604 kts | 63° |
| 2026-05-04 07:03 | 32.23131 | 132.64557 | 39006 ft | 604 kts | 62° |
| 2026-05-04 07:03 | 32.26843 | 132.73464 | 38990 ft | 604 kts | 62° |
| 2026-05-04 07:04 | 32.30590 | 132.82351 | 38993 ft | 604 kts | 62° |
| 2026-05-04 07:04 | 32.34335 | 132.91241 | 38987 ft | 603 kts | 62° |
| 2026-05-04 07:05 | 32.38062 | 133.00129 | 38988 ft | 603 kts | 62° |
| 2026-05-04 07:05 | 32.41780 | 133.09028 | 38986 ft | 603 kts | 62° |
| 2026-05-04 07:06 | 32.47346 | 133.22392 | 38989 ft | 604 kts | 62° |
| 2026-05-04 07:07 | 32.51052 | 133.31320 | 38983 ft | 604 kts | 62° |
| 2026-05-04 07:09 | 32.65195 | 133.65601 | 38972 ft | 604 kts | 62° |
| 2026-05-04 07:09 | 32.68871 | 133.74558 | 38965 ft | 603 kts | 62° |
| 2026-05-04 07:10 | 32.72537 | 133.83509 | 38966 ft | 603 kts | 62° |
| 2026-05-04 07:12 | 32.85524 | 134.20205 | 38948 ft | 604 kts | 74° |
| 2026-05-04 07:12 | 32.87887 | 134.29792 | 38944 ft | 604 kts | 75° |
| 2026-05-04 07:13 | 32.90235 | 134.39390 | 38937 ft | 604 kts | 75° |
| 2026-05-04 07:13 | 32.92593 | 134.48969 | 38939 ft | 603 kts | 75° |
| 2026-05-04 07:14 | 32.97278 | 134.67973 | 37088 ft | 595 kts | 75° |
| 2026-05-04 07:14 | 32.98437 | 134.72697 | 36476 ft | 594 kts | 76° |
| 2026-05-04 07:15 | 32.99594 | 134.77423 | 35846 ft | 593 kts | 76° |
| 2026-05-04 07:15 | 33.00745 | 134.82140 | 35271 ft | 593 kts | 76° |
| 2026-05-04 07:15 | 33.01888 | 134.86840 | 34774 ft | 590 kts | 77° |
| 2026-05-04 07:15 | 33.03027 | 134.91520 | 34335 ft | 586 kts | 77° |
| 2026-05-04 07:16 | 33.04140 | 134.96098 | 33898 ft | 582 kts | 77° |
| 2026-05-04 07:16 | 33.05261 | 135.00719 | 33404 ft | 578 kts | 77° |
| 2026-05-04 07:16 | 33.06369 | 135.05306 | 32914 ft | 575 kts | 77° |
| 2026-05-04 07:16 | 33.07472 | 135.09878 | 32395 ft | 572 kts | 77° |
| 2026-05-04 07:17 | 33.08599 | 135.14412 | 31886 ft | 571 kts | 73° |
| 2026-05-04 07:17 | 33.10275 | 135.18702 | 31382 ft | 572 kts | 58° |
| 2026-05-04 07:17 | 33.12686 | 135.22429 | 30899 ft | 566 kts | 42° |
| 2026-05-04 07:17 | 33.15573 | 135.25573 | 30449 ft | 559 kts | 35° |
| 2026-05-04 07:18 | 33.18608 | 135.28437 | 29992 ft | 554 kts | 32° |
| 2026-05-04 07:18 | 33.21695 | 135.31155 | 29500 ft | 550 kts | 30° |
| 2026-05-04 07:18 | 33.24787 | 135.33823 | 29000 ft | 546 kts | 30° |
| 2026-05-04 07:18 | 33.27855 | 135.36483 | 28537 ft | 543 kts | 31° |
| 2026-05-04 07:19 | 33.30890 | 135.39152 | 28089 ft | 540 kts | 31° |
| 2026-05-04 07:19 | 33.33892 | 135.41830 | 27637 ft | 537 kts | 31° |
| 2026-05-04 07:19 | 33.36859 | 135.44503 | 27192 ft | 533 kts | 32° |
| 2026-05-04 07:19 | 33.39807 | 135.47184 | 26758 ft | 530 kts | 32° |
| 2026-05-04 07:20 | 33.42732 | 135.49847 | 26328 ft | 527 kts | 32° |
| 2026-05-04 07:20 | 33.45636 | 135.52491 | 25895 ft | 523 kts | 32° |
| 2026-05-04 07:20 | 33.48527 | 135.55124 | 25478 ft | 520 kts | 32° |
| 2026-05-04 07:20 | 33.51397 | 135.57739 | 25064 ft | 517 kts | 32° |
| 2026-05-04 07:22 | 33.70993 | 135.75635 | 22142 ft | 492 kts | 31° |
| 2026-05-04 07:22 | 33.73727 | 135.78099 | 21708 ft | 489 kts | 30° |
| 2026-05-04 07:23 | 33.76438 | 135.80537 | 21351 ft | 484 kts | 30° |
| 2026-05-04 07:23 | 33.79082 | 135.82918 | 20935 ft | 480 kts | 31° |
| 2026-05-04 07:23 | 33.81739 | 135.85317 | 20493 ft | 475 kts | 30° |
| 2026-05-04 07:23 | 33.84370 | 135.87688 | 20075 ft | 470 kts | 30° |
| 2026-05-04 07:24 | 33.86972 | 135.90042 | 19717 ft | 466 kts | 30° |
| 2026-05-04 07:24 | 33.89553 | 135.92385 | 19372 ft | 462 kts | 30° |
| 2026-05-04 07:24 | 33.92106 | 135.94707 | 18974 ft | 457 kts | 30° |
| 2026-05-04 07:24 | 33.94624 | 135.97010 | 18550 ft | 452 kts | 30° |
| 2026-05-04 07:25 | 33.97125 | 135.99287 | 18173 ft | 448 kts | 30° |
| 2026-05-04 07:26 | 34.14203 | 136.14805 | 15107 ft | 430 kts | 31° |
| 2026-05-04 07:27 | 34.16577 | 136.16971 | 14810 ft | 426 kts | 32° |
| 2026-05-04 07:27 | 34.18927 | 136.19120 | 14458 ft | 424 kts | 32° |
| 2026-05-04 07:27 | 34.21274 | 136.21269 | 14027 ft | 422 kts | 32° |
| 2026-05-04 07:27 | 34.23607 | 136.23400 | 13801 ft | 416 kts | 31° |
| 2026-05-04 07:28 | 34.25911 | 136.25497 | 13540 ft | 412 kts | 31° |
| 2026-05-04 07:28 | 34.28201 | 136.27573 | 13000 ft | 412 kts | 32° |
| 2026-05-04 07:28 | 34.30478 | 136.29659 | 12594 ft | 407 kts | 32° |
| 2026-05-04 07:28 | 34.32714 | 136.31709 | 12364 ft | 399 kts | 31° |
| 2026-05-04 07:29 | 34.34911 | 136.33716 | 12045 ft | 393 kts | 31° |
| 2026-05-04 07:29 | 34.37073 | 136.35693 | 11805 ft | 384 kts | 31° |
| 2026-05-04 07:29 | 34.39164 | 136.37610 | 11604 ft | 368 kts | 31° |
| 2026-05-04 07:29 | 34.41121 | 136.39479 | 11188 ft | 352 kts | 36° |
| 2026-05-04 07:30 | 34.42579 | 136.41836 | 10632 ft | 347 kts | 61° |
| 2026-05-04 07:30 | 34.43546 | 136.44416 | 10146 ft | 338 kts | 64° |
| 2026-05-04 07:30 | 34.44466 | 136.47015 | 9493 ft | 332 kts | 63° |
| 2026-05-04 07:30 | 34.45377 | 136.49560 | 9078 ft | 327 kts | 63° |
| 2026-05-04 07:31 | 34.46281 | 136.52066 | 8803 ft | 322 kts | 63° |
| 2026-05-04 07:31 | 34.47177 | 136.54535 | 8510 ft | 318 kts | 62° |
| 2026-05-04 07:33 | 34.53149 | 136.70923 | 5895 ft | 291 kts | 61° |
| 2026-05-04 07:33 | 34.53963 | 136.73161 | 5503 ft | 290 kts | 61° |
| 2026-05-04 07:33 | 34.54773 | 136.75388 | 5133 ft | 288 kts | 61° |
| 2026-05-04 07:33 | 34.55582 | 136.77613 | 4711 ft | 288 kts | 62° |
| 2026-05-04 07:34 | 34.56389 | 136.79836 | 4386 ft | 285 kts | 62° |
| 2026-05-04 07:34 | 34.57170 | 136.81999 | 4236 ft | 275 kts | 61° |
| 2026-05-04 07:34 | 34.57924 | 136.84081 | 4102 ft | 264 kts | 60° |
| 2026-05-04 07:34 | 34.58957 | 136.85773 | 3990 ft | 237 kts | 28° |
| 2026-05-04 07:35 | 34.60379 | 136.86398 | 3981 ft | 205 kts | 358° |
| 2026-05-04 07:35 | 34.61740 | 136.86327 | 3997 ft | 192 kts | 342° |
| 2026-05-04 07:35 | 34.63044 | 136.86002 | 3990 ft | 188 kts | 342° |
| 2026-05-04 07:35 | 34.64296 | 136.85707 | 3990 ft | 180 kts | 342° |
| 2026-05-04 07:36 | 34.65525 | 136.85419 | 3842 ft | 178 kts | 342° |
| 2026-05-04 07:36 | 34.66713 | 136.85134 | 3615 ft | 176 kts | 341° |
| 2026-05-04 07:38 | 34.73346 | 136.83544 | 2189 ft | 154 kts | 342° |
| 2026-05-04 07:38 | 34.74338 | 136.83306 | 1993 ft | 147 kts | 342° |
| 2026-05-04 07:38 | 34.75304 | 136.83073 | 1788 ft | 137 kts | 342° |
| 2026-05-04 07:38 | 34.76212 | 136.82855 | 1627 ft | 131 kts | 342° |
| 2026-05-04 07:39 | 34.77087 | 136.82644 | 1444 ft | 127 kts | 343° |
| 2026-05-04 07:39 | 34.77948 | 136.82438 | 1282 ft | 126 kts | 341° |
| 2026-05-04 07:39 | 34.78806 | 136.82230 | 1114 ft | 125 kts | 341° |
| 2026-05-04 07:39 | 34.79660 | 136.82025 | 954 ft | 125 kts | 342° |
| 2026-05-04 07:40 | 34.80514 | 136.81814 | 791 ft | 127 kts | 346° |
| 2026-05-04 07:40 | 34.81382 | 136.81610 | 635 ft | 127 kts | 347° |
| 2026-05-04 07:40 | 34.82239 | 136.81405 | 465 ft | 125 kts | 347° |
| 2026-05-04 07:40 | 34.83090 | 136.81199 | 306 ft | 124 kts | 348° |
| 2026-05-04 07:41 | 34.83933 | 136.80997 | 140 ft | 123 kts | 347° |
| 2026-05-04 07:41 | 34.84767 | 136.80795 | 47 ft | 117 kts | 349° |
| 2026-05-04 07:41 | 34.85466 | 136.80628 | 29 ft | 63 kts | 348° |
| 2026-05-04 07:41 | 34.85582 | 136.80598 | 28 ft | 0 kts | 348° |
| 2026-05-04 07:42 | 34.85977 | 136.81316 | 30 ft | 0 kts | 117° |